Flight Track Log - Related Links

Times and Time Zones

All times are in EDT time to prevent confusion due to time zone crossing. See the EJA930 flight status page for this flight to view local times or setup timezone preferences in your user account.

Time Position Orientation Groundspeed Altitude Reporting Facility
EDT Latitude Longitude Course Direction KTS MPH feet Rate Location/Type
Wed 03:41:55 PM 38.3631 -81.6394 322° Northwest 198 228 3,300  Level Indianapolis Center
Wed 03:42:57 PM 38.4128 -81.6967 318° Northwest 249 287 7,600 3,823 Climbing Indianapolis Center
Wed 03:43:59 PM 38.4789 -81.7592 324° Northwest 287 330 11,200 2,129 Climbing Indianapolis Center
Wed 03:45:01 PM 38.5731 -81.8222 332° Northwest 379 436 12,000 387 Climbing Indianapolis Center
Wed 03:46:03 PM 38.6797 -81.8767 338° Northwest 405 466 12,000  Level Indianapolis Center
Wed 03:47:00 PM 38.7245 -81.9911 322° Northwest  Level FlightAware Approximate
Wed 03:47:05 PM 38.7853 -81.9317 338° Northwest 405 466 12,000  Level Indianapolis Center
Wed 03:48:07 PM 38.8908 -81.9878 338° Northwest 406 467 12,000  Level Indianapolis Center
Wed 03:49:09 PM 38.9950 -82.0425 338° Northwest 404 465 12,000  Level Indianapolis Center
Wed 03:50:11 PM 39.1006 -82.0989 337° Northwest 408 470 12,000  Level Indianapolis Center
Wed 03:51:13 PM 39.2275 -82.1656 338° Northwest 409 471 12,000  Level Indianapolis Center
Wed 03:52:15 PM 39.3319 -82.2211 338° Northwest 407 468 12,000  Level Indianapolis Center
Wed 03:53:17 PM 39.4444 -82.2817 337° Northwest 408 470 12,000 -435 Level Indianapolis Center
Wed 03:54:19 PM 39.5511 -82.3383 338° Northwest 410 472 11,100 -849 Descending Indianapolis Center
Wed 03:55:03 PM 39.6200 -82.3906 330° Northwest 397 457 10,500 -759 Descending Indianapolis Center
Wed 03:55:46 PM 39.6989 -82.4342 337° Northwest 393 452 10,000 -375 Descending Indianapolis Center
Wed 03:56:23 PM 39.7458 -82.4556 341° North 374 430 10,000 -788 Level Indianapolis Center
Wed 03:57:25 PM 39.8211 -82.4933 339° North 294 338 8,700 -1,631 Descending Indianapolis Center
Wed 03:58:06 PM 39.8772 -82.5239 337° Northwest 273 314 7,200 -2,000 Descending Indianapolis Center
Wed 03:59:07 PM 39.9433 -82.5717 331° Northwest 273 314 5,300 -1,937 Descending Indianapolis Center
Wed 04:00:13 PM 39.9811 -82.6656 298° West 265 305 3,100 -1,340 Descending Indianapolis Center
Wed 04:00:50 PM 39.9839 -82.7203 274° West 251 289 3,000 -600 Descending Indianapolis Center
Wed 04:01:33 PM 39.9886 -82.7683 277° West 238 274 2,300 -857 Descending Indianapolis Center
Wed 04:02:35 PM 39.9906 -82.8244 273° West 183 211 1,500 -581 Descending Indianapolis Center
Wed 04:03:37 PM 39.9928 -82.8683 274° West 153 176 1,100 -387 Descending Indianapolis Center
Wed 04:05:00 PM 39.9833 -82.8833 282° West  Level FlightAware Approximate

Login

Don't have an account? Register now (free) for customized features, flight alerts, and more!